sensor_id;sensor_type;location;lat;lon;timestamp;P1;durP1;ratioP1;P2;durP2;ratioP2
20928;SDS011;21895;47.072;15.132;2024-03-02T00:01:59;51.20;;;17.53;;
20928;SDS011;21895;47.072;15.132;2024-03-02T00:04:26;53.23;;;15.93;;
20928;SDS011;21895;47.072;15.132;2024-03-02T00:06:52;53.63;;;17.90;;
20928;SDS011;21895;47.072;15.132;2024-03-02T00:09:22;45.50;;;16.10;;
20928;SDS011;21895;47.072;15.132;2024-03-02T00:11:49;54.17;;;17.13;;
20928;SDS011;21895;47.072;15.132;2024-03-02T00:14:16;48.93;;;16.13;;
20928;SDS011;21895;47.072;15.132;2024-03-02T00:16:43;58.57;;;17.33;;
20928;SDS011;21895;47.072;15.132;2024-03-02T00:19:09;52.83;;;16.47;;
20928;SDS011;21895;47.072;15.132;2024-03-02T00:21:37;47.70;;;16.23;;
20928;SDS011;21895;47.072;15.132;2024-03-02T00:24:07;46.73;;;15.80;;
20928;SDS011;21895;47.072;15.132;2024-03-02T00:26:58;43.80;;;16.03;;
20928;SDS011;21895;47.072;15.132;2024-03-02T00:29:24;40.50;;;15.53;;
20928;SDS011;21895;47.072;15.132;2024-03-02T00:31:51;54.97;;;15.37;;
20928;SDS011;21895;47.072;15.132;2024-03-02T00:34:18;49.43;;;16.10;;
20928;SDS011;21895;47.072;15.132;2024-03-02T00:36:45;59.10;;;16.63;;
20928;SDS011;21895;47.072;15.132;2024-03-02T00:39:12;49.90;;;15.77;;
20928;SDS011;21895;47.072;15.132;2024-03-02T00:41:42;55.23;;;17.17;;
20928;SDS011;21895;47.072;15.132;2024-03-02T00:44:13;41.77;;;14.33;;
20928;SDS011;21895;47.072;15.132;2024-03-02T00:46:42;47.00;;;15.23;;
20928;SDS011;21895;47.072;15.132;2024-03-02T00:49:12;48.33;;;15.13;;
20928;SDS011;21895;47.072;15.132;2024-03-02T00:51:48;48.07;;;16.43;;
20928;SDS011;21895;47.072;15.132;2024-03-02T00:54:21;44.07;;;15.57;;
20928;SDS011;21895;47.072;15.132;2024-03-02T00:56:51;46.50;;;14.00;;
20928;SDS011;21895;47.072;15.132;2024-03-02T00:59:21;43.30;;;16.17;;
20928;SDS011;21895;47.072;15.132;2024-03-02T01:01:51;41.57;;;13.10;;
20928;SDS011;21895;47.072;15.132;2024-03-02T01:04:19;50.00;;;15.17;;
20928;SDS011;21895;47.072;15.132;2024-03-02T01:06:46;46.90;;;15.47;;
20928;SDS011;21895;47.072;15.132;2024-03-02T01:09:13;38.67;;;14.70;;
20928;SDS011;21895;47.072;15.132;2024-03-02T01:11:40;47.53;;;13.73;;
20928;SDS011;21895;47.072;15.132;2024-03-02T01:14:07;42.50;;;14.30;;
20928;SDS011;21895;47.072;15.132;2024-03-02T01:16:33;41.77;;;14.53;;
20928;SDS011;21895;47.072;15.132;2024-03-02T01:19:00;38.83;;;14.10;;
20928;SDS011;21895;47.072;15.132;2024-03-02T01:21:27;44.23;;;15.57;;
20928;SDS011;21895;47.072;15.132;2024-03-02T01:23:53;44.73;;;14.47;;
20928;SDS011;21895;47.072;15.132;2024-03-02T01:26:20;45.87;;;15.50;;
20928;SDS011;21895;47.072;15.132;2024-03-02T01:28:46;43.87;;;15.10;;
20928;SDS011;21895;47.072;15.132;2024-03-02T01:31:13;50.80;;;14.50;;
20928;SDS011;21895;47.072;15.132;2024-03-02T01:33:40;56.90;;;16.13;;
20928;SDS011;21895;47.072;15.132;2024-03-02T01:36:07;36.73;;;14.47;;
20928;SDS011;21895;47.072;15.132;2024-03-02T01:38:34;46.40;;;15.43;;
20928;SDS011;21895;47.072;15.132;2024-03-02T01:41:00;59.50;;;15.93;;
20928;SDS011;21895;47.072;15.132;2024-03-02T01:43:27;45.07;;;14.67;;
20928;SDS011;21895;47.072;15.132;2024-03-02T01:45:54;47.87;;;15.47;;
20928;SDS011;21895;47.072;15.132;2024-03-02T01:48:22;53.43;;;16.10;;
20928;SDS011;21895;47.072;15.132;2024-03-02T01:50:48;42.13;;;13.90;;
20928;SDS011;21895;47.072;15.132;2024-03-02T01:53:15;41.47;;;14.23;;
20928;SDS011;21895;47.072;15.132;2024-03-02T01:55:42;46.00;;;14.00;;
20928;SDS011;21895;47.072;15.132;2024-03-02T01:58:09;56.00;;;15.77;;
20928;SDS011;21895;47.072;15.132;2024-03-02T02:00:35;50.90;;;14.37;;
20928;SDS011;21895;47.072;15.132;2024-03-02T02:03:02;54.50;;;15.10;;
20928;SDS011;21895;47.072;15.132;2024-03-02T02:05:29;54.20;;;17.10;;
20928;SDS011;21895;47.072;15.132;2024-03-02T02:07:57;54.13;;;15.20;;
20928;SDS011;21895;47.072;15.132;2024-03-02T02:10:24;40.17;;;13.80;;
20928;SDS011;21895;47.072;15.132;2024-03-02T02:12:50;46.07;;;14.33;;
20928;SDS011;21895;47.072;15.132;2024-03-02T02:15:27;47.60;;;15.83;;
20928;SDS011;21895;47.072;15.132;2024-03-02T02:17:56;57.17;;;16.20;;
20928;SDS011;21895;47.072;15.132;2024-03-02T02:20:24;50.27;;;14.70;;
20928;SDS011;21895;47.072;15.132;2024-03-02T02:25:36;41.20;;;14.97;;
20928;SDS011;21895;47.072;15.132;2024-03-02T02:28:03;57.50;;;14.53;;
20928;SDS011;21895;47.072;15.132;2024-03-02T02:30:31;47.43;;;14.93;;
20928;SDS011;21895;47.072;15.132;2024-03-02T02:32:58;50.50;;;16.17;;
20928;SDS011;21895;47.072;15.132;2024-03-02T02:35:25;41.90;;;13.77;;
20928;SDS011;21895;47.072;15.132;2024-03-02T02:37:52;57.00;;;14.80;;
20928;SDS011;21895;47.072;15.132;2024-03-02T02:40:22;45.73;;;14.60;;
20928;SDS011;21895;47.072;15.132;2024-03-02T02:42:49;46.63;;;15.13;;
20928;SDS011;21895;47.072;15.132;2024-03-02T02:45:17;46.47;;;14.23;;
20928;SDS011;21895;47.072;15.132;2024-03-02T02:47:44;46.63;;;15.93;;
20928;SDS011;21895;47.072;15.132;2024-03-02T02:50:11;43.47;;;12.97;;
20928;SDS011;21895;47.072;15.132;2024-03-02T02:52:39;50.83;;;14.23;;
20928;SDS011;21895;47.072;15.132;2024-03-02T02:55:08;47.07;;;14.83;;
20928;SDS011;21895;47.072;15.132;2024-03-02T02:57:37;48.13;;;15.23;;
20928;SDS011;21895;47.072;15.132;2024-03-02T03:00:08;50.17;;;15.20;;
20928;SDS011;21895;47.072;15.132;2024-03-02T03:02:44;53.33;;;16.23;;
20928;SDS011;21895;47.072;15.132;2024-03-02T03:05:15;48.17;;;15.20;;
20928;SDS011;21895;47.072;15.132;2024-03-02T03:07:41;52.00;;;14.77;;
20928;SDS011;21895;47.072;15.132;2024-03-02T03:10:09;46.30;;;14.80;;
20928;SDS011;21895;47.072;15.132;2024-03-02T03:12:36;38.97;;;14.40;;
20928;SDS011;21895;47.072;15.132;2024-03-02T03:15:03;47.17;;;14.60;;
20928;SDS011;21895;47.072;15.132;2024-03-02T03:17:32;49.77;;;14.97;;
20928;SDS011;21895;47.072;15.132;2024-03-02T03:19:59;49.13;;;14.47;;
20928;SDS011;21895;47.072;15.132;2024-03-02T03:22:26;50.90;;;14.80;;
20928;SDS011;21895;47.072;15.132;2024-03-02T03:24:53;44.00;;;14.53;;
20928;SDS011;21895;47.072;15.132;2024-03-02T03:27:20;44.93;;;13.83;;
20928;SDS011;21895;47.072;15.132;2024-03-02T03:29:46;45.10;;;13.13;;
20928;SDS011;21895;47.072;15.132;2024-03-02T03:32:13;41.73;;;13.93;;
20928;SDS011;21895;47.072;15.132;2024-03-02T03:34:40;45.43;;;14.43;;
20928;SDS011;21895;47.072;15.132;2024-03-02T03:37:07;48.70;;;14.73;;
20928;SDS011;21895;47.072;15.132;2024-03-02T03:39:34;47.17;;;14.63;;
20928;SDS011;21895;47.072;15.132;2024-03-02T03:42:04;40.70;;;14.07;;
20928;SDS011;21895;47.072;15.132;2024-03-02T03:44:30;45.03;;;14.77;;
20928;SDS011;21895;47.072;15.132;2024-03-02T03:46:57;53.30;;;14.17;;
20928;SDS011;21895;47.072;15.132;2024-03-02T03:49:24;54.77;;;15.53;;
20928;SDS011;21895;47.072;15.132;2024-03-02T03:51:50;45.67;;;14.57;;
20928;SDS011;21895;47.072;15.132;2024-03-02T03:54:17;39.70;;;14.33;;
20928;SDS011;21895;47.072;15.132;2024-03-02T03:56:44;47.50;;;15.10;;
20928;SDS011;21895;47.072;15.132;2024-03-02T03:59:10;52.20;;;15.37;;
20928;SDS011;21895;47.072;15.132;2024-03-02T04:01:37;49.67;;;14.27;;
20928;SDS011;21895;47.072;15.132;2024-03-02T04:04:04;57.33;;;15.83;;
20928;SDS011;21895;47.072;15.132;2024-03-02T04:06:30;62.53;;;17.70;;
20928;SDS011;21895;47.072;15.132;2024-03-02T04:08:57;43.00;;;14.60;;
20928;SDS011;21895;47.072;15.132;2024-03-02T04:11:24;52.60;;;15.83;;
20928;SDS011;21895;47.072;15.132;2024-03-02T04:13:50;59.27;;;15.57;;
20928;SDS011;21895;47.072;15.132;2024-03-02T04:16:17;45.87;;;15.37;;
20928;SDS011;21895;47.072;15.132;2024-03-02T04:18:44;48.97;;;14.83;;
20928;SDS011;21895;47.072;15.132;2024-03-02T04:21:10;47.37;;;14.93;;
20928;SDS011;21895;47.072;15.132;2024-03-02T04:23:37;53.13;;;14.50;;
20928;SDS011;21895;47.072;15.132;2024-03-02T04:26:04;45.97;;;14.23;;
20928;SDS011;21895;47.072;15.132;2024-03-02T04:28:30;49.57;;;15.83;;
20928;SDS011;21895;47.072;15.132;2024-03-02T04:30:57;45.30;;;14.87;;
20928;SDS011;21895;47.072;15.132;2024-03-02T04:33:23;52.40;;;13.83;;
20928;SDS011;21895;47.072;15.132;2024-03-02T04:35:50;43.50;;;13.47;;
20928;SDS011;21895;47.072;15.132;2024-03-02T04:38:17;43.10;;;13.10;;
20928;SDS011;21895;47.072;15.132;2024-03-02T04:40:43;46.40;;;15.07;;
20928;SDS011;21895;47.072;15.132;2024-03-02T04:43:10;50.20;;;15.53;;
20928;SDS011;21895;47.072;15.132;2024-03-02T04:45:40;41.07;;;12.87;;
20928;SDS011;21895;47.072;15.132;2024-03-02T04:48:07;40.30;;;14.33;;
20928;SDS011;21895;47.072;15.132;2024-03-02T04:50:33;42.60;;;13.50;;
20928;SDS011;21895;47.072;15.132;2024-03-02T04:53:00;39.47;;;13.87;;
20928;SDS011;21895;47.072;15.132;2024-03-02T04:55:27;46.37;;;14.20;;
20928;SDS011;21895;47.072;15.132;2024-03-02T04:57:53;44.40;;;12.37;;
20928;SDS011;21895;47.072;15.132;2024-03-02T05:00:23;33.43;;;12.33;;
20928;SDS011;21895;47.072;15.132;2024-03-02T05:02:50;47.77;;;13.60;;
20928;SDS011;21895;47.072;15.132;2024-03-02T05:05:16;59.30;;;15.13;;
20928;SDS011;21895;47.072;15.132;2024-03-02T05:07:43;51.33;;;13.83;;
20928;SDS011;21895;47.072;15.132;2024-03-02T05:10:10;43.00;;;12.50;;
20928;SDS011;21895;47.072;15.132;2024-03-02T05:12:37;40.90;;;12.47;;
20928;SDS011;21895;47.072;15.132;2024-03-02T05:15:10;52.70;;;12.87;;
20928;SDS011;21895;47.072;15.132;2024-03-02T05:17:39;44.67;;;12.70;;
20928;SDS011;21895;47.072;15.132;2024-03-02T05:20:10;41.43;;;13.73;;
20928;SDS011;21895;47.072;15.132;2024-03-02T05:22:37;44.30;;;12.70;;
20928;SDS011;21895;47.072;15.132;2024-03-02T05:25:05;43.80;;;12.10;;
20928;SDS011;21895;47.072;15.132;2024-03-02T05:27:33;42.97;;;13.70;;
20928;SDS011;21895;47.072;15.132;2024-03-02T05:30:00;50.83;;;13.57;;
20928;SDS011;21895;47.072;15.132;2024-03-02T05:32:27;33.27;;;12.20;;
20928;SDS011;21895;47.072;15.132;2024-03-02T05:34:53;45.30;;;12.27;;
20928;SDS011;21895;47.072;15.132;2024-03-02T05:37:20;44.77;;;12.33;;
20928;SDS011;21895;47.072;15.132;2024-03-02T05:39:47;36.47;;;13.03;;
20928;SDS011;21895;47.072;15.132;2024-03-02T05:42:13;44.13;;;13.13;;
20928;SDS011;21895;47.072;15.132;2024-03-02T05:44:42;41.20;;;12.40;;
20928;SDS011;21895;47.072;15.132;2024-03-02T05:47:08;40.30;;;12.90;;
20928;SDS011;21895;47.072;15.132;2024-03-02T05:49:35;32.70;;;11.87;;
20928;SDS011;21895;47.072;15.132;2024-03-02T05:52:02;36.30;;;12.50;;
20928;SDS011;21895;47.072;15.132;2024-03-02T05:54:28;36.17;;;12.00;;
20928;SDS011;21895;47.072;15.132;2024-03-02T05:56:55;47.57;;;11.80;;
20928;SDS011;21895;47.072;15.132;2024-03-02T05:59:22;43.90;;;13.17;;
20928;SDS011;21895;47.072;15.132;2024-03-02T06:01:48;39.37;;;12.03;;
20928;SDS011;21895;47.072;15.132;2024-03-02T06:04:17;52.17;;;12.83;;
20928;SDS011;21895;47.072;15.132;2024-03-02T06:06:43;40.33;;;11.97;;
20928;SDS011;21895;47.072;15.132;2024-03-02T06:09:10;39.57;;;12.23;;
20928;SDS011;21895;47.072;15.132;2024-03-02T06:11:40;34.20;;;12.17;;
20928;SDS011;21895;47.072;15.132;2024-03-02T06:14:07;37.93;;;11.50;;
20928;SDS011;21895;47.072;15.132;2024-03-02T06:16:34;45.17;;;12.83;;
20928;SDS011;21895;47.072;15.132;2024-03-02T06:19:01;36.97;;;11.87;;
20928;SDS011;21895;47.072;15.132;2024-03-02T06:21:28;45.63;;;12.30;;
20928;SDS011;21895;47.072;15.132;2024-03-02T06:23:55;48.60;;;12.67;;
20928;SDS011;21895;47.072;15.132;2024-03-02T06:26:22;35.70;;;11.73;;
20928;SDS011;21895;47.072;15.132;2024-03-02T06:28:51;44.20;;;12.00;;
20928;SDS011;21895;47.072;15.132;2024-03-02T06:31:18;29.97;;;10.97;;
20928;SDS011;21895;47.072;15.132;2024-03-02T06:33:45;32.00;;;11.20;;
20928;SDS011;21895;47.072;15.132;2024-03-02T06:36:12;35.83;;;11.83;;
20928;SDS011;21895;47.072;15.132;2024-03-02T06:38:41;29.77;;;11.00;;
20928;SDS011;21895;47.072;15.132;2024-03-02T06:41:09;24.17;;;9.63;;
20928;SDS011;21895;47.072;15.132;2024-03-02T06:43:36;33.37;;;9.90;;
20928;SDS011;21895;47.072;15.132;2024-03-02T06:46:03;28.87;;;7.77;;
20928;SDS011;21895;47.072;15.132;2024-03-02T06:48:31;23.70;;;9.33;;
20928;SDS011;21895;47.072;15.132;2024-03-02T06:50:58;19.20;;;8.57;;
20928;SDS011;21895;47.072;15.132;2024-03-02T06:53:25;21.27;;;8.03;;
20928;SDS011;21895;47.072;15.132;2024-03-02T06:55:51;23.63;;;9.07;;
20928;SDS011;21895;47.072;15.132;2024-03-02T06:58:18;25.03;;;10.00;;
20928;SDS011;21895;47.072;15.132;2024-03-02T07:00:44;17.10;;;7.17;;
20928;SDS011;21895;47.072;15.132;2024-03-02T07:03:11;25.87;;;8.67;;
20928;SDS011;21895;47.072;15.132;2024-03-02T07:05:39;20.60;;;7.50;;
20928;SDS011;21895;47.072;15.132;2024-03-02T07:08:06;19.47;;;7.20;;
20928;SDS011;21895;47.072;15.132;2024-03-02T07:10:32;22.73;;;7.70;;
20928;SDS011;21895;47.072;15.132;2024-03-02T07:12:59;23.60;;;6.93;;
20928;SDS011;21895;47.072;15.132;2024-03-02T07:15:26;16.67;;;6.87;;
20928;SDS011;21895;47.072;15.132;2024-03-02T07:17:53;19.07;;;6.93;;
20928;SDS011;21895;47.072;15.132;2024-03-02T07:20:19;26.63;;;7.67;;
20928;SDS011;21895;47.072;15.132;2024-03-02T07:22:46;23.27;;;8.57;;
20928;SDS011;21895;47.072;15.132;2024-03-02T07:25:13;19.20;;;6.80;;
20928;SDS011;21895;47.072;15.132;2024-03-02T07:27:43;18.87;;;7.60;;
20928;SDS011;21895;47.072;15.132;2024-03-02T07:30:13;20.40;;;6.17;;
20928;SDS011;21895;47.072;15.132;2024-03-02T07:32:41;19.03;;;6.70;;
20928;SDS011;21895;47.072;15.132;2024-03-02T07:35:14;16.03;;;5.90;;
20928;SDS011;21895;47.072;15.132;2024-03-02T07:37:41;18.37;;;6.27;;
20928;SDS011;21895;47.072;15.132;2024-03-02T07:40:08;28.47;;;6.43;;
20928;SDS011;21895;47.072;15.132;2024-03-02T07:42:39;21.80;;;6.30;;
20928;SDS011;21895;47.072;15.132;2024-03-02T07:45:06;10.70;;;5.73;;
20928;SDS011;21895;47.072;15.132;2024-03-02T07:47:34;13.07;;;6.00;;
20928;SDS011;21895;47.072;15.132;2024-03-02T07:50:01;18.47;;;5.80;;
20928;SDS011;21895;47.072;15.132;2024-03-02T07:52:28;16.20;;;6.07;;
20928;SDS011;21895;47.072;15.132;2024-03-02T07:54:55;13.37;;;6.70;;
20928;SDS011;21895;47.072;15.132;2024-03-02T07:57:22;17.97;;;7.53;;
20928;SDS011;21895;47.072;15.132;2024-03-02T07:59:48;17.70;;;7.27;;
20928;SDS011;21895;47.072;15.132;2024-03-02T08:02:15;25.73;;;7.23;;
20928;SDS011;21895;47.072;15.132;2024-03-02T08:04:42;15.73;;;7.00;;
20928;SDS011;21895;47.072;15.132;2024-03-02T08:07:09;16.50;;;6.60;;
20928;SDS011;21895;47.072;15.132;2024-03-02T08:09:35;16.97;;;7.00;;
20928;SDS011;21895;47.072;15.132;2024-03-02T08:12:02;19.73;;;7.47;;
20928;SDS011;21895;47.072;15.132;2024-03-02T08:14:29;21.03;;;8.13;;
20928;SDS011;21895;47.072;15.132;2024-03-02T08:16:56;24.27;;;8.50;;
20928;SDS011;21895;47.072;15.132;2024-03-02T08:19:22;19.23;;;7.73;;
20928;SDS011;21895;47.072;15.132;2024-03-02T08:21:49;31.13;;;8.83;;
20928;SDS011;21895;47.072;15.132;2024-03-02T08:24:16;28.47;;;7.50;;
20928;SDS011;21895;47.072;15.132;2024-03-02T08:26:42;18.97;;;6.90;;
20928;SDS011;21895;47.072;15.132;2024-03-02T08:29:09;21.67;;;8.00;;
20928;SDS011;21895;47.072;15.132;2024-03-02T08:31:37;26.67;;;7.70;;
20928;SDS011;21895;47.072;15.132;2024-03-02T08:34:07;21.93;;;7.67;;
20928;SDS011;21895;47.072;15.132;2024-03-02T08:36:34;23.33;;;8.00;;
20928;SDS011;21895;47.072;15.132;2024-03-02T08:39:01;19.30;;;7.03;;
20928;SDS011;21895;47.072;15.132;2024-03-02T08:41:28;18.17;;;6.90;;
20928;SDS011;21895;47.072;15.132;2024-03-02T08:43:55;18.60;;;7.20;;
20928;SDS011;21895;47.072;15.132;2024-03-02T08:46:22;18.43;;;7.30;;
20928;SDS011;21895;47.072;15.132;2024-03-02T08:48:48;22.80;;;7.47;;
20928;SDS011;21895;47.072;15.132;2024-03-02T08:51:15;20.73;;;6.70;;
20928;SDS011;21895;47.072;15.132;2024-03-02T08:53:41;23.23;;;8.47;;
20928;SDS011;21895;47.072;15.132;2024-03-02T08:56:09;15.70;;;6.13;;
20928;SDS011;21895;47.072;15.132;2024-03-02T08:58:36;13.40;;;6.43;;
20928;SDS011;21895;47.072;15.132;2024-03-02T09:01:02;15.50;;;6.30;;
20928;SDS011;21895;47.072;15.132;2024-03-02T09:03:29;18.77;;;6.97;;
20928;SDS011;21895;47.072;15.132;2024-03-02T09:05:58;22.20;;;7.60;;
20928;SDS011;21895;47.072;15.132;2024-03-02T09:08:25;27.97;;;8.10;;
20928;SDS011;21895;47.072;15.132;2024-03-02T09:10:52;17.87;;;6.87;;
20928;SDS011;21895;47.072;15.132;2024-03-02T09:13:19;17.47;;;6.63;;
20928;SDS011;21895;47.072;15.132;2024-03-02T09:15:45;16.40;;;6.23;;
20928;SDS011;21895;47.072;15.132;2024-03-02T09:18:12;19.93;;;7.83;;
20928;SDS011;21895;47.072;15.132;2024-03-02T09:20:39;20.70;;;7.57;;
20928;SDS011;21895;47.072;15.132;2024-03-02T09:23:05;20.83;;;7.83;;
20928;SDS011;21895;47.072;15.132;2024-03-02T09:25:32;25.27;;;7.90;;
20928;SDS011;21895;47.072;15.132;2024-03-02T09:27:58;21.50;;;7.20;;
20928;SDS011;21895;47.072;15.132;2024-03-02T09:30:25;22.43;;;8.10;;
20928;SDS011;21895;47.072;15.132;2024-03-02T09:32:52;19.07;;;6.50;;
20928;SDS011;21895;47.072;15.132;2024-03-02T09:35:41;22.27;;;7.00;;
20928;SDS011;21895;47.072;15.132;2024-03-02T09:38:08;14.73;;;6.90;;
20928;SDS011;21895;47.072;15.132;2024-03-02T09:40:35;21.23;;;7.37;;
20928;SDS011;21895;47.072;15.132;2024-03-02T09:43:02;16.63;;;6.63;;
20928;SDS011;21895;47.072;15.132;2024-03-02T09:45:34;19.67;;;6.93;;
20928;SDS011;21895;47.072;15.132;2024-03-02T09:48:02;19.53;;;7.00;;
20928;SDS011;21895;47.072;15.132;2024-03-02T09:50:28;12.57;;;5.97;;
20928;SDS011;21895;47.072;15.132;2024-03-02T09:52:55;14.83;;;6.40;;
20928;SDS011;21895;47.072;15.132;2024-03-02T09:55:22;12.73;;;5.37;;
20928;SDS011;21895;47.072;15.132;2024-03-02T09:57:50;15.83;;;5.70;;
20928;SDS011;21895;47.072;15.132;2024-03-02T10:00:17;15.13;;;5.27;;
20928;SDS011;21895;47.072;15.132;2024-03-02T10:02:44;16.00;;;5.73;;
20928;SDS011;21895;47.072;15.132;2024-03-02T10:05:23;13.13;;;5.20;;
20928;SDS011;21895;47.072;15.132;2024-03-02T10:08:02;13.03;;;5.40;;
20928;SDS011;21895;47.072;15.132;2024-03-02T10:10:39;19.33;;;5.03;;
20928;SDS011;21895;47.072;15.132;2024-03-02T10:13:12;13.77;;;5.23;;
20928;SDS011;21895;47.072;15.132;2024-03-02T10:15:40;12.00;;;5.23;;
20928;SDS011;21895;47.072;15.132;2024-03-02T10:18:11;11.73;;;4.70;;
20928;SDS011;21895;47.072;15.132;2024-03-02T10:20:39;16.10;;;5.83;;
20928;SDS011;21895;47.072;15.132;2024-03-02T10:23:10;16.03;;;5.53;;
20928;SDS011;21895;47.072;15.132;2024-03-02T10:25:43;11.63;;;4.73;;
20928;SDS011;21895;47.072;15.132;2024-03-02T10:28:23;14.00;;;4.60;;
20928;SDS011;21895;47.072;15.132;2024-03-02T10:30:50;10.53;;;4.87;;
20928;SDS011;21895;47.072;15.132;2024-03-02T10:33:18;14.07;;;5.13;;
20928;SDS011;21895;47.072;15.132;2024-03-02T10:35:45;13.60;;;4.73;;
20928;SDS011;21895;47.072;15.132;2024-03-02T10:38:15;14.13;;;4.97;;
20928;SDS011;21895;47.072;15.132;2024-03-02T10:40:46;16.63;;;6.53;;
20928;SDS011;21895;47.072;15.132;2024-03-02T10:43:14;13.73;;;5.78;;
20928;SDS011;21895;47.072;15.132;2024-03-02T10:45:42;15.10;;;6.27;;
20928;SDS011;21895;47.072;15.132;2024-03-02T10:48:14;15.80;;;5.10;;
20928;SDS011;21895;47.072;15.132;2024-03-02T10:50:41;14.67;;;5.10;;
20928;SDS011;21895;47.072;15.132;2024-03-02T10:53:08;13.53;;;5.43;;
20928;SDS011;21895;47.072;15.132;2024-03-02T10:55:35;12.20;;;4.87;;
20928;SDS011;21895;47.072;15.132;2024-03-02T10:58:02;10.43;;;5.30;;
20928;SDS011;21895;47.072;15.132;2024-03-02T11:00:33;9.63;;;4.70;;
20928;SDS011;21895;47.072;15.132;2024-03-02T11:03:07;12.07;;;5.20;;
20928;SDS011;21895;47.072;15.132;2024-03-02T11:05:37;11.13;;;4.90;;
20928;SDS011;21895;47.072;15.132;2024-03-02T11:08:12;8.83;;;4.67;;
20928;SDS011;21895;47.072;15.132;2024-03-02T11:10:51;11.15;;;4.15;;
20928;SDS011;21895;47.072;15.132;2024-03-02T11:13:32;12.87;;;5.13;;
20928;SDS011;21895;47.072;15.132;2024-03-02T11:16:05;8.90;;;4.60;;
20928;SDS011;21895;47.072;15.132;2024-03-02T11:18:44;13.43;;;4.10;;
20928;SDS011;21895;47.072;15.132;2024-03-02T11:21:12;13.90;;;4.73;;
20928;SDS011;21895;47.072;15.132;2024-03-02T11:23:39;13.77;;;4.23;;
20928;SDS011;21895;47.072;15.132;2024-03-02T11:26:21;17.43;;;5.20;;
20928;SDS011;21895;47.072;15.132;2024-03-02T11:28:50;8.97;;;4.40;;
20928;SDS011;21895;47.072;15.132;2024-03-02T11:31:17;10.80;;;4.33;;
20928;SDS011;21895;47.072;15.132;2024-03-02T11:33:43;13.50;;;4.37;;
20928;SDS011;21895;47.072;15.132;2024-03-02T11:36:10;10.53;;;4.10;;
20928;SDS011;21895;47.072;15.132;2024-03-02T11:38:38;10.63;;;4.63;;
20928;SDS011;21895;47.072;15.132;2024-03-02T11:41:11;14.93;;;4.10;;
20928;SDS011;21895;47.072;15.132;2024-03-02T11:43:39;12.10;;;4.03;;
20928;SDS011;21895;47.072;15.132;2024-03-02T11:46:09;9.67;;;4.07;;
20928;SDS011;21895;47.072;15.132;2024-03-02T11:48:37;10.10;;;4.40;;
20928;SDS011;21895;47.072;15.132;2024-03-02T11:51:05;12.82;;;4.03;;
20928;SDS011;21895;47.072;15.132;2024-03-02T11:53:32;14.20;;;4.57;;
20928;SDS011;21895;47.072;15.132;2024-03-02T11:56:04;14.47;;;4.50;;
20928;SDS011;21895;47.072;15.132;2024-03-02T11:58:35;16.13;;;5.17;;
20928;SDS011;21895;47.072;15.132;2024-03-02T12:01:06;14.20;;;6.13;;
20928;SDS011;21895;47.072;15.132;2024-03-02T12:03:33;12.40;;;4.97;;
20928;SDS011;21895;47.072;15.132;2024-03-02T12:06:01;14.75;;;5.75;;
20928;SDS011;21895;47.072;15.132;2024-03-02T12:08:28;15.37;;;5.93;;
20928;SDS011;21895;47.072;15.132;2024-03-02T12:10:58;18.15;;;5.78;;
20928;SDS011;21895;47.072;15.132;2024-03-02T12:13:29;13.80;;;5.70;;
20928;SDS011;21895;47.072;15.132;2024-03-02T12:15:56;14.90;;;4.97;;
20928;SDS011;21895;47.072;15.132;2024-03-02T12:18:23;18.17;;;5.70;;
20928;SDS011;21895;47.072;15.132;2024-03-02T12:20:51;13.27;;;5.23;;
20928;SDS011;21895;47.072;15.132;2024-03-02T12:23:18;13.60;;;5.07;;
20928;SDS011;21895;47.072;15.132;2024-03-02T12:25:45;13.10;;;5.80;;
20928;SDS011;21895;47.072;15.132;2024-03-02T12:28:12;12.17;;;5.03;;
20928;SDS011;21895;47.072;15.132;2024-03-02T12:30:39;17.50;;;5.20;;
20928;SDS011;21895;47.072;15.132;2024-03-02T12:33:06;15.33;;;5.43;;
20928;SDS011;21895;47.072;15.132;2024-03-02T12:35:33;13.43;;;5.53;;
20928;SDS011;21895;47.072;15.132;2024-03-02T12:38:01;13.13;;;5.53;;
20928;SDS011;21895;47.072;15.132;2024-03-02T12:40:28;14.83;;;5.07;;
20928;SDS011;21895;47.072;15.132;2024-03-02T12:42:57;13.83;;;5.37;;
20928;SDS011;21895;47.072;15.132;2024-03-02T12:45:24;14.33;;;5.53;;
20928;SDS011;21895;47.072;15.132;2024-03-02T12:47:51;18.37;;;5.77;;
20928;SDS011;21895;47.072;15.132;2024-03-02T12:50:19;11.40;;;4.60;;
20928;SDS011;21895;47.072;15.132;2024-03-02T12:52:53;13.93;;;5.23;;
20928;SDS011;21895;47.072;15.132;2024-03-02T12:55:21;11.67;;;4.93;;
20928;SDS011;21895;47.072;15.132;2024-03-02T12:57:52;15.87;;;5.80;;
20928;SDS011;21895;47.072;15.132;2024-03-02T13:00:20;14.17;;;4.90;;
20928;SDS011;21895;47.072;15.132;2024-03-02T13:02:49;13.40;;;5.03;;
20928;SDS011;21895;47.072;15.132;2024-03-02T13:05:16;14.37;;;4.90;;
20928;SDS011;21895;47.072;15.132;2024-03-02T13:07:43;13.43;;;4.80;;
20928;SDS011;21895;47.072;15.132;2024-03-02T13:10:10;13.33;;;5.30;;
20928;SDS011;21895;47.072;15.132;2024-03-02T13:12:38;12.30;;;5.03;;
20928;SDS011;21895;47.072;15.132;2024-03-02T13:15:05;15.27;;;5.00;;
20928;SDS011;21895;47.072;15.132;2024-03-02T13:17:37;9.57;;;4.10;;
20928;SDS011;21895;47.072;15.132;2024-03-02T13:20:05;12.33;;;4.80;;
20928;SDS011;21895;47.072;15.132;2024-03-02T13:22:36;7.97;;;4.13;;
20928;SDS011;21895;47.072;15.132;2024-03-02T13:25:02;11.80;;;4.70;;
20928;SDS011;21895;47.072;15.132;2024-03-02T13:27:31;15.53;;;4.37;;
20928;SDS011;21895;47.072;15.132;2024-03-02T13:29:58;11.37;;;5.13;;
20928;SDS011;21895;47.072;15.132;2024-03-02T13:32:25;8.50;;;4.17;;
20928;SDS011;21895;47.072;15.132;2024-03-02T13:34:51;13.43;;;4.40;;
20928;SDS011;21895;47.072;15.132;2024-03-02T13:37:19;18.10;;;4.90;;
20928;SDS011;21895;47.072;15.132;2024-03-02T13:39:47;19.73;;;4.80;;
20928;SDS011;21895;47.072;15.132;2024-03-02T13:42:14;9.27;;;4.37;;
20928;SDS011;21895;47.072;15.132;2024-03-02T13:44:44;12.07;;;3.97;;
20928;SDS011;21895;47.072;15.132;2024-03-02T13:47:13;8.80;;;4.13;;
20928;SDS011;21895;47.072;15.132;2024-03-02T13:49:39;12.63;;;4.40;;
20928;SDS011;21895;47.072;15.132;2024-03-02T13:52:09;10.77;;;4.30;;
20928;SDS011;21895;47.072;15.132;2024-03-02T13:54:37;12.57;;;4.22;;
20928;SDS011;21895;47.072;15.132;2024-03-02T13:57:07;13.63;;;4.80;;
20928;SDS011;21895;47.072;15.132;2024-03-02T13:59:35;11.53;;;4.30;;
20928;SDS011;21895;47.072;15.132;2024-03-02T14:02:03;12.67;;;5.07;;
20928;SDS011;21895;47.072;15.132;2024-03-02T14:04:33;9.70;;;4.37;;
20928;SDS011;21895;47.072;15.132;2024-03-02T14:07:01;9.30;;;4.33;;
20928;SDS011;21895;47.072;15.132;2024-03-02T14:09:29;9.30;;;4.93;;
20928;SDS011;21895;47.072;15.132;2024-03-02T14:11:55;9.20;;;4.47;;
20928;SDS011;21895;47.072;15.132;2024-03-02T14:14:22;14.90;;;4.60;;
20928;SDS011;21895;47.072;15.132;2024-03-02T14:16:49;12.27;;;4.40;;
20928;SDS011;21895;47.072;15.132;2024-03-02T14:19:16;9.93;;;4.67;;
20928;SDS011;21895;47.072;15.132;2024-03-02T14:21:43;11.77;;;3.93;;
20928;SDS011;21895;47.072;15.132;2024-03-02T14:24:10;11.63;;;5.03;;